sensor_id;sensor_type;location;lat;lon;timestamp;pressure;altitude;pressure_sealevel;temperature;humidity
71151;BME280;59071;42.138;24.768;2024-02-26T00:01:07;99314.00;;;11.79;84.14
71151;BME280;59071;42.138;24.768;2024-02-26T00:03:32;99316.72;;;11.72;84.77
71151;BME280;59071;42.138;24.768;2024-02-26T00:06:01;99302.56;;;11.53;85.00
71151;BME280;59071;42.138;24.768;2024-02-26T00:08:26;99311.50;;;11.84;84.32
71151;BME280;59071;42.138;24.768;2024-02-26T00:10:52;99307.44;;;11.63;84.33
71151;BME280;59071;42.138;24.768;2024-02-26T00:13:17;99300.31;;;11.76;84.39
71151;BME280;59071;42.138;24.768;2024-02-26T00:15:43;99305.63;;;11.57;85.28
71151;BME280;59071;42.138;24.768;2024-02-26T00:18:08;99300.28;;;11.57;84.92
71151;BME280;59071;42.138;24.768;2024-02-26T00:20:33;99304.69;;;11.88;83.01
71151;BME280;59071;42.138;24.768;2024-02-26T00:22:59;99306.53;;;11.69;83.80
71151;BME280;59071;42.138;24.768;2024-02-26T00:25:24;99304.50;;;11.65;84.51
71151;BME280;59071;42.138;24.768;2024-02-26T00:27:49;99291.44;;;11.63;83.66
71151;BME280;59071;42.138;24.768;2024-02-26T00:30:15;99288.91;;;11.68;83.31
71151;BME280;59071;42.138;24.768;2024-02-26T00:32:40;99307.50;;;11.75;83.47
71151;BME280;59071;42.138;24.768;2024-02-26T00:35:06;99310.81;;;11.52;84.47
71151;BME280;59071;42.138;24.768;2024-02-26T00:37:31;99304.63;;;11.33;85.43
71151;BME280;59071;42.138;24.768;2024-02-26T00:39:57;99312.06;;;11.24;85.98
71151;BME280;59071;42.138;24.768;2024-02-26T00:42:22;99312.84;;;11.31;86.55
71151;BME280;59071;42.138;24.768;2024-02-26T00:44:48;99321.22;;;11.35;86.15
71151;BME280;59071;42.138;24.768;2024-02-26T00:47:13;99305.69;;;11.50;85.62
71151;BME280;59071;42.138;24.768;2024-02-26T00:49:39;99307.44;;;11.63;84.67
71151;BME280;59071;42.138;24.768;2024-02-26T00:52:04;99310.81;;;11.70;84.03
71151;BME280;59071;42.138;24.768;2024-02-26T00:54:30;99303.41;;;11.54;85.13
71151;BME280;59071;42.138;24.768;2024-02-26T00:56:55;99289.84;;;11.55;85.36
71151;BME280;59071;42.138;24.768;2024-02-26T00:59:20;99272.84;;;11.57;85.35
71151;BME280;59071;42.138;24.768;2024-02-26T01:01:46;99255.59;;;11.41;86.17
71151;BME280;59071;42.138;24.768;2024-02-26T01:04:11;99242.03;;;11.24;86.54
71151;BME280;59071;42.138;24.768;2024-02-26T01:06:37;99222.38;;;11.00;88.09
71151;BME280;59071;42.138;24.768;2024-02-26T01:09:03;99217.66;;;10.76;88.95
71151;BME280;59071;42.138;24.768;2024-02-26T01:11:28;99216.28;;;10.92;89.31
71151;BME280;59071;42.138;24.768;2024-02-26T01:13:54;99203.22;;;11.09;87.32
71151;BME280;59071;42.138;24.768;2024-02-26T01:16:22;99226.66;;;11.01;87.27
71151;BME280;59071;42.138;24.768;2024-02-26T01:18:48;99244.13;;;11.15;87.47
71151;BME280;59071;42.138;24.768;2024-02-26T01:21:13;99252.09;;;11.40;87.61
71151;BME280;59071;42.138;24.768;2024-02-26T01:23:38;99254.34;;;11.62;86.23
71151;BME280;59071;42.138;24.768;2024-02-26T01:26:04;99250.97;;;11.29;86.78
71151;BME280;59071;42.138;24.768;2024-02-26T01:28:30;99253.47;;;11.24;87.77
71151;BME280;59071;42.138;24.768;2024-02-26T01:30:55;99261.22;;;10.82;90.25
71151;BME280;59071;42.138;24.768;2024-02-26T01:33:20;99269.28;;;11.01;90.00
71151;BME280;59071;42.138;24.768;2024-02-26T01:35:46;99266.03;;;11.17;88.74
71151;BME280;59071;42.138;24.768;2024-02-26T01:38:12;99272.28;;;11.48;86.88
71151;BME280;59071;42.138;24.768;2024-02-26T01:40:37;99260.09;;;11.59;86.82
71151;BME280;59071;42.138;24.768;2024-02-26T01:43:02;99258.94;;;11.91;84.33
71151;BME280;59071;42.138;24.768;2024-02-26T01:45:28;99269.50;;;11.80;84.59
71151;BME280;59071;42.138;24.768;2024-02-26T01:47:54;99271.72;;;11.83;84.09
71151;BME280;59071;42.138;24.768;2024-02-26T01:50:20;99265.13;;;11.67;85.09
71151;BME280;59071;42.138;24.768;2024-02-26T01:52:47;99261.28;;;11.44;86.52
71151;BME280;59071;42.138;24.768;2024-02-26T01:55:14;99258.69;;;11.38;86.54
71151;BME280;59071;42.138;24.768;2024-02-26T01:57:42;99266.16;;;11.47;86.59
71151;BME280;59071;42.138;24.768;2024-02-26T02:00:09;99260.91;;;11.41;86.54
71151;BME280;59071;42.138;24.768;2024-02-26T02:02:35;99260.97;;;11.34;86.73
71151;BME280;59071;42.138;24.768;2024-02-26T02:05:01;99265.09;;;11.30;87.32
71151;BME280;59071;42.138;24.768;2024-02-26T02:07:28;99266.25;;;11.41;86.57
71151;BME280;59071;42.138;24.768;2024-02-26T02:09:53;99257.28;;;11.10;87.43
71151;BME280;59071;42.138;24.768;2024-02-26T02:12:19;99264.63;;;11.14;88.41
71151;BME280;59071;42.138;24.768;2024-02-26T02:14:44;99264.94;;;11.06;88.22
71151;BME280;59071;42.138;24.768;2024-02-26T02:17:10;99265.91;;;11.30;87.03
71151;BME280;59071;42.138;24.768;2024-02-26T02:19:35;99258.97;;;11.48;86.67
71151;BME280;59071;42.138;24.768;2024-02-26T02:22:01;99262.16;;;11.38;86.14
71151;BME280;59071;42.138;24.768;2024-02-26T02:24:26;99253.97;;;11.58;85.86
71151;BME280;59071;42.138;24.768;2024-02-26T02:26:51;99256.09;;;11.49;85.41
71151;BME280;59071;42.138;24.768;2024-02-26T02:29:17;99254.47;;;11.48;85.71
71151;BME280;59071;42.138;24.768;2024-02-26T02:31:42;99257.94;;;11.30;85.47
71151;BME280;59071;42.138;24.768;2024-02-26T02:34:09;99255.56;;;11.22;85.85
71151;BME280;59071;42.138;24.768;2024-02-26T02:36:34;99261.19;;;11.32;86.05
71151;BME280;59071;42.138;24.768;2024-02-26T02:38:59;99253.72;;;11.41;85.17
71151;BME280;59071;42.138;24.768;2024-02-26T02:41:25;99250.53;;;11.32;84.37
71151;BME280;59071;42.138;24.768;2024-02-26T02:43:52;99254.41;;;11.37;84.64
71151;BME280;59071;42.138;24.768;2024-02-26T02:46:17;99251.50;;;11.20;85.38
71151;BME280;59071;42.138;24.768;2024-02-26T02:48:43;99260.13;;;10.90;87.17
71151;BME280;59071;42.138;24.768;2024-02-26T02:51:09;99256.16;;;11.24;85.82
71151;BME280;59071;42.138;24.768;2024-02-26T02:53:35;99264.16;;;10.99;86.72
71151;BME280;59071;42.138;24.768;2024-02-26T02:56:00;99271.34;;;10.99;86.79
71151;BME280;59071;42.138;24.768;2024-02-26T02:58:25;99268.28;;;10.95;86.68
71151;BME280;59071;42.138;24.768;2024-02-26T03:00:51;99274.56;;;10.75;88.32
71151;BME280;59071;42.138;24.768;2024-02-26T03:03:16;99281.19;;;10.66;88.60
71151;BME280;59071;42.138;24.768;2024-02-26T03:05:41;99276.28;;;10.95;87.24
71151;BME280;59071;42.138;24.768;2024-02-26T03:08:07;99283.63;;;10.68;89.22
71151;BME280;59071;42.138;24.768;2024-02-26T03:10:32;99275.03;;;10.66;89.01
71151;BME280;59071;42.138;24.768;2024-02-26T03:12:58;99276.69;;;10.28;90.91
71151;BME280;59071;42.138;24.768;2024-02-26T03:15:23;99281.50;;;10.51;90.63
71151;BME280;59071;42.138;24.768;2024-02-26T03:17:48;99283.63;;;10.36;90.30
71151;BME280;59071;42.138;24.768;2024-02-26T03:20:14;99282.78;;;10.42;91.65
71151;BME280;59071;42.138;24.768;2024-02-26T03:22:39;99276.38;;;10.50;90.77
71151;BME280;59071;42.138;24.768;2024-02-26T03:25:06;99274.66;;;10.62;90.12
71151;BME280;59071;42.138;24.768;2024-02-26T03:27:31;99277.38;;;10.55;89.90
71151;BME280;59071;42.138;24.768;2024-02-26T03:29:57;99277.06;;;10.70;89.75
71151;BME280;59071;42.138;24.768;2024-02-26T03:32:22;99271.78;;;10.64;89.62
71151;BME280;59071;42.138;24.768;2024-02-26T03:34:47;99272.34;;;10.72;89.01
71151;BME280;59071;42.138;24.768;2024-02-26T03:37:13;99269.78;;;10.59;90.13
71151;BME280;59071;42.138;24.768;2024-02-26T03:39:38;99274.44;;;10.64;89.17
71151;BME280;59071;42.138;24.768;2024-02-26T03:42:04;99283.84;;;10.34;90.67
71151;BME280;59071;42.138;24.768;2024-02-26T03:44:29;99279.38;;;10.22;90.95
71151;BME280;59071;42.138;24.768;2024-02-26T03:46:55;99284.63;;;10.42;90.72
71151;BME280;59071;42.138;24.768;2024-02-26T03:49:21;99279.56;;;10.27;91.51
71151;BME280;59071;42.138;24.768;2024-02-26T03:51:47;99279.34;;;10.28;92.12
71151;BME280;59071;42.138;24.768;2024-02-26T03:54:12;99265.06;;;10.16;91.63
71151;BME280;59071;42.138;24.768;2024-02-26T03:56:37;99271.34;;;10.35;91.17
71151;BME280;59071;42.138;24.768;2024-02-26T03:59:03;99275.41;;;10.37;90.69
71151;BME280;59071;42.138;24.768;2024-02-26T04:01:28;99289.56;;;10.31;90.37
71151;BME280;59071;42.138;24.768;2024-02-26T04:03:54;99287.50;;;10.33;91.24
71151;BME280;59071;42.138;24.768;2024-02-26T04:06:19;99287.97;;;10.30;90.56
71151;BME280;59071;42.138;24.768;2024-02-26T04:08:46;99287.09;;;10.36;90.40
71151;BME280;59071;42.138;24.768;2024-02-26T04:11:12;99281.22;;;10.21;90.79
71151;BME280;59071;42.138;24.768;2024-02-26T04:13:37;99276.25;;;10.38;89.73
71151;BME280;59071;42.138;24.768;2024-02-26T04:16:06;99273.50;;;10.51;88.22
71151;BME280;59071;42.138;24.768;2024-02-26T04:18:32;99279.44;;;10.53;87.16
71151;BME280;59071;42.138;24.768;2024-02-26T04:20:57;99287.69;;;10.39;88.38
71151;BME280;59071;42.138;24.768;2024-02-26T04:23:23;99285.63;;;10.41;86.59
71151;BME280;59071;42.138;24.768;2024-02-26T04:25:49;99265.94;;;10.48;86.99
71151;BME280;59071;42.138;24.768;2024-02-26T04:28:14;99276.25;;;10.38;86.94
71151;BME280;59071;42.138;24.768;2024-02-26T04:30:40;99271.59;;;10.20;87.48
71151;BME280;59071;42.138;24.768;2024-02-26T04:33:05;99271.53;;;10.40;86.59
71151;BME280;59071;42.138;24.768;2024-02-26T04:35:31;99280.59;;;10.64;85.70
71151;BME280;59071;42.138;24.768;2024-02-26T04:37:57;99283.22;;;10.26;86.71
71151;BME280;59071;42.138;24.768;2024-02-26T04:40:23;99288.00;;;10.17;87.05
71151;BME280;59071;42.138;24.768;2024-02-26T04:42:48;99280.44;;;10.59;84.90
71151;BME280;59071;42.138;24.768;2024-02-26T04:45:14;99282.50;;;10.50;84.53
71151;BME280;59071;42.138;24.768;2024-02-26T04:47:39;99280.44;;;10.52;84.23
71151;BME280;59071;42.138;24.768;2024-02-26T04:50:05;99287.34;;;10.67;83.85
71151;BME280;59071;42.138;24.768;2024-02-26T04:52:30;99284.75;;;10.53;82.88
71151;BME280;59071;42.138;24.768;2024-02-26T04:54:56;99290.06;;;10.53;82.63
71151;BME280;59071;42.138;24.768;2024-02-26T04:57:21;99284.56;;;10.48;83.30
71151;BME280;59071;42.138;24.768;2024-02-26T04:59:47;99294.63;;;10.46;83.86
71151;BME280;59071;42.138;24.768;2024-02-26T05:02:13;99287.41;;;10.53;83.10
71151;BME280;59071;42.138;24.768;2024-02-26T05:04:38;99292.22;;;10.31;84.10
71151;BME280;59071;42.138;24.768;2024-02-26T05:07:04;99291.69;;;10.54;82.93
71151;BME280;59071;42.138;24.768;2024-02-26T05:09:29;99296.66;;;10.51;83.40
71151;BME280;59071;42.138;24.768;2024-02-26T05:11:54;99292.03;;;10.26;83.88
71151;BME280;59071;42.138;24.768;2024-02-26T05:14:20;99300.59;;;10.35;84.18
71151;BME280;59071;42.138;24.768;2024-02-26T05:16:46;99293.06;;;10.32;84.03
71151;BME280;59071;42.138;24.768;2024-02-26T05:19:12;99300.59;;;10.42;83.54
71151;BME280;59071;42.138;24.768;2024-02-26T05:21:37;99284.84;;;10.72;89.70
71151;BME280;59071;42.138;24.768;2024-02-26T05:24:03;99301.00;;;10.39;83.69
71151;BME280;59071;42.138;24.768;2024-02-26T05:26:28;99292.28;;;10.88;86.67
71151;BME280;59071;42.138;24.768;2024-02-26T05:28:54;99301.03;;;11.21;89.74
71151;BME280;59071;42.138;24.768;2024-02-26T05:31:25;99296.94;;;12.05;86.77
71151;BME280;59071;42.138;24.768;2024-02-26T05:33:50;99309.41;;;12.84;85.99
71151;BME280;59071;42.138;24.768;2024-02-26T05:36:22;99306.63;;;13.44;80.76
71151;BME280;59071;42.138;24.768;2024-02-26T05:38:50;99317.13;;;13.98;76.21
71151;BME280;59071;42.138;24.768;2024-02-26T05:41:16;99319.38;;;14.30;77.41
71151;BME280;59071;42.138;24.768;2024-02-26T05:43:42;99316.75;;;14.76;73.61
71151;BME280;59071;42.138;24.768;2024-02-26T05:46:08;99320.44;;;15.20;73.22
71151;BME280;59071;42.138;24.768;2024-02-26T05:48:33;99317.41;;;15.51;70.99
71151;BME280;59071;42.138;24.768;2024-02-26T05:50:59;99317.25;;;15.57;64.15
71151;BME280;59071;42.138;24.768;2024-02-26T05:53:24;99317.66;;;15.32;64.16
71151;BME280;59071;42.138;24.768;2024-02-26T05:55:49;99322.88;;;15.05;63.43
71151;BME280;59071;42.138;24.768;2024-02-26T05:58:15;99328.31;;;14.93;64.00
71151;BME280;59071;42.138;24.768;2024-02-26T06:00:40;99331.28;;;14.80;64.32
71151;BME280;59071;42.138;24.768;2024-02-26T06:03:05;99331.81;;;14.65;65.13
71151;BME280;59071;42.138;24.768;2024-02-26T06:05:31;99330.84;;;14.71;64.25
71151;BME280;59071;42.138;24.768;2024-02-26T06:07:56;99335.91;;;14.27;65.55
71151;BME280;59071;42.138;24.768;2024-02-26T06:10:22;99344.75;;;14.16;66.75
71151;BME280;59071;42.138;24.768;2024-02-26T06:12:47;99340.47;;;14.15;67.06
71151;BME280;59071;42.138;24.768;2024-02-26T06:15:13;99333.25;;;14.15;66.69
71151;BME280;59071;42.138;24.768;2024-02-26T06:17:38;99328.44;;;13.88;67.20
71151;BME280;59071;42.138;24.768;2024-02-26T06:20:04;99347.81;;;14.07;66.55
71151;BME280;59071;42.138;24.768;2024-02-26T06:22:31;99345.66;;;13.81;67.54
71151;BME280;59071;42.138;24.768;2024-02-26T06:24:57;99353.19;;;13.84;68.18
71151;BME280;59071;42.138;24.768;2024-02-26T06:27:23;99345.41;;;13.82;68.04
71151;BME280;59071;42.138;24.768;2024-02-26T06:29:49;99354.38;;;13.88;68.54
71151;BME280;59071;42.138;24.768;2024-02-26T06:32:14;99364.00;;;13.89;68.13
71151;BME280;59071;42.138;24.768;2024-02-26T06:34:39;99355.84;;;13.84;68.40
71151;BME280;59071;42.138;24.768;2024-02-26T06:37:07;99355.41;;;13.40;69.72
71151;BME280;59071;42.138;24.768;2024-02-26T06:39:33;99370.53;;;13.58;69.00
71151;BME280;59071;42.138;24.768;2024-02-26T06:41:58;99371.00;;;13.66;69.27
71151;BME280;59071;42.138;24.768;2024-02-26T06:44:26;99366.81;;;13.59;69.06
71151;BME280;59071;42.138;24.768;2024-02-26T06:46:57;99372.31;;;13.10;71.42
71151;BME280;59071;42.138;24.768;2024-02-26T06:49:23;99366.56;;;13.37;70.15
71151;BME280;59071;42.138;24.768;2024-02-26T06:51:49;99367.91;;;13.27;70.87
71151;BME280;59071;42.138;24.768;2024-02-26T06:54:14;99371.44;;;13.40;70.96
71151;BME280;59071;42.138;24.768;2024-02-26T06:56:40;99364.03;;;13.65;69.28
71151;BME280;59071;42.138;24.768;2024-02-26T06:59:05;99377.16;;;13.55;69.51
71151;BME280;59071;42.138;24.768;2024-02-26T07:01:30;99382.50;;;13.55;69.64
71151;BME280;59071;42.138;24.768;2024-02-26T07:03:56;99376.59;;;13.23;71.00
71151;BME280;59071;42.138;24.768;2024-02-26T07:06:21;99375.16;;;13.39;70.45
71151;BME280;59071;42.138;24.768;2024-02-26T07:08:46;99381.09;;;13.64;69.64
71151;BME280;59071;42.138;24.768;2024-02-26T07:11:12;99377.25;;;13.72;69.02
71151;BME280;59071;42.138;24.768;2024-02-26T07:13:37;99372.72;;;13.49;69.75
71151;BME280;59071;42.138;24.768;2024-02-26T07:16:04;99365.28;;;13.51;69.43
71151;BME280;59071;42.138;24.768;2024-02-26T07:18:32;99378.56;;;13.58;69.57
71151;BME280;59071;42.138;24.768;2024-02-26T07:20:58;99372.50;;;13.74;68.58
71151;BME280;59071;42.138;24.768;2024-02-26T07:23:26;99376.09;;;13.92;68.44
71151;BME280;59071;42.138;24.768;2024-02-26T07:25:52;99388.53;;;13.62;69.03
71151;BME280;59071;42.138;24.768;2024-02-26T07:28:18;99380.75;;;13.49;70.09
71151;BME280;59071;42.138;24.768;2024-02-26T07:30:43;99377.03;;;13.62;69.81
71151;BME280;59071;42.138;24.768;2024-02-26T07:33:08;99383.53;;;13.78;69.67
71151;BME280;59071;42.138;24.768;2024-02-26T07:35:34;99387.59;;;14.04;68.41
71151;BME280;59071;42.138;24.768;2024-02-26T07:38:01;99393.88;;;14.10;68.41
71151;BME280;59071;42.138;24.768;2024-02-26T07:40:26;99385.88;;;13.74;69.69
71151;BME280;59071;42.138;24.768;2024-02-26T07:42:52;99389.34;;;13.98;69.23
71151;BME280;59071;42.138;24.768;2024-02-26T07:45:17;99378.25;;;14.18;68.46
71151;BME280;59071;42.138;24.768;2024-02-26T07:47:46;99375.31;;;14.43;67.42
71151;BME280;59071;42.138;24.768;2024-02-26T07:50:11;99377.75;;;14.57;66.43
71151;BME280;59071;42.138;24.768;2024-02-26T07:52:37;99379.63;;;14.73;65.84
71151;BME280;59071;42.138;24.768;2024-02-26T07:55:03;99376.31;;;14.66;65.96
71151;BME280;59071;42.138;24.768;2024-02-26T07:57:28;99382.03;;;14.05;68.44
71151;BME280;59071;42.138;24.768;2024-02-26T07:59:53;99378.53;;;13.93;68.31
71151;BME280;59071;42.138;24.768;2024-02-26T08:02:19;99371.31;;;14.05;68.42
71151;BME280;59071;42.138;24.768;2024-02-26T08:04:44;99369.38;;;13.54;70.39
71151;BME280;59071;42.138;24.768;2024-02-26T08:07:10;99379.34;;;14.05;68.73
71151;BME280;59071;42.138;24.768;2024-02-26T08:09:35;99372.84;;;14.01;68.36
71151;BME280;59071;42.138;24.768;2024-02-26T08:12:01;99366.66;;;14.13;67.38
71151;BME280;59071;42.138;24.768;2024-02-26T08:14:26;99374.53;;;14.19;68.14
71151;BME280;59071;42.138;24.768;2024-02-26T08:16:51;99373.13;;;14.28;67.55
71151;BME280;59071;42.138;24.768;2024-02-26T08:19:17;99374.97;;;14.40;66.47
71151;BME280;59071;42.138;24.768;2024-02-26T08:21:43;99362.34;;;14.52;66.56
71151;BME280;59071;42.138;24.768;2024-02-26T08:24:08;99367.03;;;14.57;65.00
71151;BME280;59071;42.138;24.768;2024-02-26T08:26:34;99366.53;;;14.60;65.85
71151;BME280;59071;42.138;24.768;2024-02-26T08:28:59;99371.88;;;14.89;64.45
71151;BME280;59071;42.138;24.768;2024-02-26T08:31:24;99381.66;;;14.95;64.14
71151;BME280;59071;42.138;24.768;2024-02-26T08:33:50;99369.16;;;15.00;64.00
71151;BME280;59071;42.138;24.768;2024-02-26T08:36:15;99365.78;;;14.36;66.12
71151;BME280;59071;42.138;24.768;2024-02-26T08:38:41;99359.84;;;14.74;65.10
71151;BME280;59071;42.138;24.768;2024-02-26T08:41:06;99374.91;;;14.52;65.24
71151;BME280;59071;42.138;24.768;2024-02-26T08:43:31;99371.91;;;14.48;64.81
71151;BME280;59071;42.138;24.768;2024-02-26T08:45:57;99367.44;;;15.11;63.20
71151;BME280;59071;42.138;24.768;2024-02-26T08:48:23;99363.75;;;15.29;63.26
71151;BME280;59071;42.138;24.768;2024-02-26T08:50:48;99357.06;;;15.49;62.14
71151;BME280;59071;42.138;24.768;2024-02-26T08:53:13;99369.34;;;15.78;61.18
71151;BME280;59071;42.138;24.768;2024-02-26T08:55:39;99359.81;;;15.71;60.54
71151;BME280;59071;42.138;24.768;2024-02-26T08:58:04;99361.56;;;15.99;60.46
71151;BME280;59071;42.138;24.768;2024-02-26T09:00:30;99362.91;;;16.18;59.65
71151;BME280;59071;42.138;24.768;2024-02-26T09:02:56;99356.69;;;16.40;58.07
71151;BME280;59071;42.138;24.768;2024-02-26T09:05:21;99360.38;;;15.90;58.79
71151;BME280;59071;42.138;24.768;2024-02-26T09:07:47;99366.03;;;15.93;60.16
71151;BME280;59071;42.138;24.768;2024-02-26T09:10:12;99358.44;;;15.85;59.70
71151;BME280;59071;42.138;24.768;2024-02-26T09:12:38;99353.28;;;16.22;59.68
71151;BME280;59071;42.138;24.768;2024-02-26T09:15:06;99362.56;;;16.59;57.94
71151;BME280;59071;42.138;24.768;2024-02-26T09:17:31;99361.69;;;16.80;57.56
71151;BME280;59071;42.138;24.768;2024-02-26T09:19:57;99360.00;;;16.96;56.96
71151;BME280;59071;42.138;24.768;2024-02-26T09:22:22;99349.72;;;17.20;56.27
71151;BME280;59071;42.138;24.768;2024-02-26T09:24:48;99353.31;;;17.31;55.53
71151;BME280;59071;42.138;24.768;2024-02-26T09:27:15;99355.50;;;17.34;55.28
71151;BME280;59071;42.138;24.768;2024-02-26T09:29:41;99355.69;;;16.73;56.77
71151;BME280;59071;42.138;24.768;2024-02-26T09:32:06;99351.94;;;16.96;55.50
71151;BME280;59071;42.138;24.768;2024-02-26T09:34:31;99349.72;;;17.20;55.09
71151;BME280;59071;42.138;24.768;2024-02-26T09:36:58;99347.25;;;17.51;54.11
71151;BME280;59071;42.138;24.768;2024-02-26T09:39:23;99355.00;;;17.80;53.29
71151;BME280;59071;42.138;24.768;2024-02-26T09:41:49;99352.31;;;17.43;54.03
71151;BME280;59071;42.138;24.768;2024-02-26T09:44:20;99347.03;;;17.20;54.14
71151;BME280;59071;42.138;24.768;2024-02-26T09:46:47;99352.72;;;17.67;52.43
71151;BME280;59071;42.138;24.768;2024-02-26T09:49:17;99343.59;;;17.68;52.85
71151;BME280;59071;42.138;24.768;2024-02-26T09:51:43;99343.31;;;17.64;52.85
71151;BME280;59071;42.138;24.768;2024-02-26T09:54:09;99337.47;;;17.77;53.88
71151;BME280;59071;42.138;24.768;2024-02-26T09:56:38;99340.69;;;18.27;51.18
71151;BME280;59071;42.138;24.768;2024-02-26T09:59:06;99340.41;;;17.71;52.29
71151;BME280;59071;42.138;24.768;2024-02-26T10:01:34;99340.31;;;17.98;51.99
71151;BME280;59071;42.138;24.768;2024-02-26T10:04:00;99336.63;;;18.20;52.23
71151;BME280;59071;42.138;24.768;2024-02-26T10:06:26;99324.56;;;18.38;51.50
71151;BME280;59071;42.138;24.768;2024-02-26T10:08:54;99322.25;;;18.82;50.73
71151;BME280;59071;42.138;24.768;2024-02-26T10:11:20;99321.97;;;18.73;49.94
71151;BME280;59071;42.138;24.768;2024-02-26T10:13:45;99305.56;;;19.06;48.48
71151;BME280;59071;42.138;24.768;2024-02-26T10:16:11;99304.72;;;19.21;48.09
71151;BME280;59071;42.138;24.768;2024-02-26T10:18:49;99306.09;;;19.23;48.84
71151;BME280;59071;42.138;24.768;2024-02-26T10:21:19;99292.31;;;19.40;48.29
71151;BME280;59071;42.138;24.768;2024-02-26T10:23:45;99299.03;;;19.58;47.14
71151;BME280;59071;42.138;24.768;2024-02-26T10:26:11;99291.44;;;19.70;46.84
71151;BME280;59071;42.138;24.768;2024-02-26T10:28:39;99295.25;;;19.75;46.26
71151;BME280;59071;42.138;24.768;2024-02-26T10:31:04;99285.84;;;18.80;48.15
71151;BME280;59071;42.138;24.768;2024-02-26T10:33:33;99287.50;;;18.86;47.78
71151;BME280;59071;42.138;24.768;2024-02-26T10:36:01;99282.88;;;19.22;47.33
71151;BME280;59071;42.138;24.768;2024-02-26T10:38:26;99280.47;;;19.10;47.38
71151;BME280;59071;42.138;24.768;2024-02-26T10:40:51;99273.72;;;19.13;47.57
71151;BME280;59071;42.138;24.768;2024-02-26T10:43:17;99276.06;;;19.66;46.65
71151;BME280;59071;42.138;24.768;2024-02-26T10:45:43;99270.44;;;19.52;46.75
71151;BME280;59071;42.138;24.768;2024-02-26T10:48:10;99264.81;;;19.38;46.92
71151;BME280;59071;42.138;24.768;2024-02-26T10:50:36;99256.22;;;19.16;47.52
71151;BME280;59071;42.138;24.768;2024-02-26T10:53:02;99270.47;;;19.37;47.28
71151;BME280;59071;42.138;24.768;2024-02-26T10:55:29;99266.31;;;19.70;47.02
71151;BME280;59071;42.138;24.768;2024-02-26T10:57:58;99257.50;;;20.19;46.66
71151;BME280;59071;42.138;24.768;2024-02-26T11:00:24;99254.44;;;20.36;45.14
71151;BME280;59071;42.138;24.768;2024-02-26T11:02:50;99250.31;;;20.44;44.49
71151;BME280;59071;42.138;24.768;2024-02-26T11:05:17;99243.47;;;20.12;45.33
71151;BME280;59071;42.138;24.768;2024-02-26T11:07:42;99246.41;;;20.21;44.81
71151;BME280;59071;42.138;24.768;2024-02-26T11:10:11;99236.91;;;19.68;45.63
71151;BME280;59071;42.138;24.768;2024-02-26T11:12:39;99244.75;;;19.75;45.70
71151;BME280;59071;42.138;24.768;2024-02-26T11:15:05;99239.66;;;19.53;45.51
71151;BME280;59071;42.138;24.768;2024-02-26T11:17:31;99236.47;;;19.46;44.93
71151;BME280;59071;42.138;24.768;2024-02-26T11:19:58;99226.31;;;18.97;46.50
71151;BME280;59071;42.138;24.768;2024-02-26T11:22:25;99229.81;;;18.97;47.39
71151;BME280;59071;42.138;24.768;2024-02-26T11:24:55;99222.75;;;18.65;48.28
71151;BME280;59071;42.138;24.768;2024-02-26T11:27:30;99229.78;;;19.18;45.91
71151;BME280;59071;42.138;24.768;2024-02-26T11:29:59;99217.31;;;19.37;46.35
71151;BME280;59071;42.138;24.768;2024-02-26T11:32:26;99206.34;;;19.88;44.51
71151;BME280;59071;42.138;24.768;2024-02-26T11:34:53;99215.63;;;19.62;45.04
71151;BME280;59071;42.138;24.768;2024-02-26T11:37:19;99211.66;;;19.39;46.41
71151;BME280;59071;42.138;24.768;2024-02-26T11:39:46;99201.03;;;19.73;45.66
71151;BME280;59071;42.138;24.768;2024-02-26T11:42:14;99204.78;;;20.22;44.58
71151;BME280;59071;42.138;24.768;2024-02-26T11:44:40;99208.88;;;20.19;44.45
71151;BME280;59071;42.138;24.768;2024-02-26T11:47:14;99202.09;;;19.77;44.86
71151;BME280;59071;42.138;24.768;2024-02-26T11:49:43;99203.34;;;19.95;44.23
71151;BME280;59071;42.138;24.768;2024-02-26T11:52:09;99203.72;;;19.63;45.18
71151;BME280;59071;42.138;24.768;2024-02-26T11:54:45;99200.22;;;19.67;45.33
71151;BME280;59071;42.138;24.768;2024-02-26T11:59:49;99187.50;;;20.23;43.95
71151;BME280;59071;42.138;24.768;2024-02-26T12:02:38;99183.00;;;20.47;43.45
71151;BME280;59071;42.138;24.768;2024-02-26T12:05:31;99187.38;;;20.43;43.76
71151;BME280;59071;42.138;24.768;2024-02-26T12:08:02;99186.66;;;20.67;43.19
71151;BME280;59071;42.138;24.768;2024-02-26T12:10:38;99184.19;;;20.70;43.52
71151;BME280;59071;42.138;24.768;2024-02-26T12:13:08;99183.88;;;21.06;42.45
71151;BME280;59071;42.138;24.768;2024-02-26T12:15:37;99196.19;;;21.18;42.12
71151;BME280;59071;42.138;24.768;2024-02-26T12:18:05;99179.44;;;20.86;42.97
71151;BME280;59071;42.138;24.768;2024-02-26T12:20:31;99178.81;;;21.24;42.46
71151;BME280;59071;42.138;24.768;2024-02-26T12:22:57;99175.03;;;21.25;41.84
71151;BME280;59071;42.138;24.768;2024-02-26T12:25:27;99172.13;;;21.40;41.20
71151;BME280;59071;42.138;24.768;2024-02-26T12:27:54;99176.09;;;21.24;41.04
71151;BME280;59071;42.138;24.768;2024-02-26T12:30:19;99171.06;;;20.88;42.34
71151;BME280;59071;42.138;24.768;2024-02-26T12:32:46;99167.72;;;20.33;43.41
71151;BME280;59071;42.138;24.768;2024-02-26T12:35:12;99165.13;;;20.17;43.77
71151;BME280;59071;42.138;24.768;2024-02-26T12:37:38;99170.50;;;19.78;44.94
71151;BME280;59071;42.138;24.768;2024-02-26T12:40:06;99164.28;;;20.22;43.89
71151;BME280;59071;42.138;24.768;2024-02-26T12:42:33;99161.06;;;20.54;42.59
71151;BME280;59071;42.138;24.768;2024-02-26T12:45:08;99163.19;;;20.28;42.96
71151;BME280;59071;42.138;24.768;2024-02-26T12:47:41;99167.28;;;20.20;43.37